Estación de La capilla

Ultimos registro cada 15 minutos 52
Estación Fecha / Hora Temperatura Humedad Lluvia Velocidad Dirección Radiación Presion
52 La capilla 31-08-2026 13:00 13,9 91 0 0 221 130 1098,6
51 La capilla 31-08-2026 12:45 14,1 89 0 0 220 234 1098,8
50 La capilla 31-08-2026 12:30 14,1 92 0 1,3 223 995 1099
49 La capilla 31-08-2026 12:15 13 93 0 1,8 225 464 1099,2
48 La capilla 31-08-2026 12:00 12,7 95 0 0 360 496 1099,2
47 La capilla 31-08-2026 11:45 11,7 95 0 1,8 360 420 1099,3
46 La capilla 31-08-2026 11:30 11,3 96 0 0,4 360 362 1099,5
45 La capilla 31-08-2026 11:15 11 96 0 0 202 160 1099,5
44 La capilla 31-08-2026 11:00 10,7 97 0 1,3 360 207 1099,4
43 La capilla 31-08-2026 10:45 10,4 97 0 0 200 160 1099,5
42 La capilla 31-08-2026 10:30 10,2 97 0 0 360 146 1099,5
41 La capilla 31-08-2026 10:15 10,1 97 0 0 360 77 1099,6
40 La capilla 31-08-2026 10:00 9,9 97 0 0 360 65 1099,4
39 La capilla 31-08-2026 09:45 9,9 97 0 0 200 53 1099,3
38 La capilla 31-08-2026 09:30 9,9 98 0 0 200 95 1099,2
37 La capilla 31-08-2026 09:15 9,6 98 0 0 200 123 1099
36 La capilla 31-08-2026 09:00 9,3 98 0 0 200 142 1098,7
35 La capilla 31-08-2026 08:45 9,1 98 0 0 360 44 1098,8
34 La capilla 31-08-2026 08:30 8,9 98 0 0 360 40 1098,4
33 La capilla 31-08-2026 08:15 8,8 98 0 0 360 11 1098,2
32 La capilla 31-08-2026 08:00 8,7 98 0 0 360 26 1097,7
31 La capilla 31-08-2026 07:45 8,7 98 0 0 360 25 1097,6
30 La capilla 31-08-2026 07:30 8,6 98 0 0 360 12 1097,4
29 La capilla 31-08-2026 07:15 8,6 98 0 0 360 0 1097,1
28 La capilla 31-08-2026 07:00 8,6 97 0,2 0 360 0 1096,9
27 La capilla 31-08-2026 06:30 8,7 98 0 0 360 0 1096,8
26 La capilla 31-08-2026 06:15 8,7 97 0,2 0 360 0 1096,6
25 La capilla 31-08-2026 06:00 8,7 97 0 0 360 0 1096,5
24 La capilla 31-08-2026 05:45 8,7 97 0 0 360 0 1096,3
23 La capilla 31-08-2026 05:30 8,7 97 0 0 360 0 1096,1
22 La capilla 31-08-2026 05:15 8,7 97 0,2 0 360 0 1096
21 La capilla 31-08-2026 05:00 8,8 97 0 0,9 360 0 1095,9
20 La capilla 31-08-2026 04:45 8,7 97 0,2 0 360 0 1095,7
19 La capilla 31-08-2026 04:30 8,8 96 0,4 0 360 0 1095,6
18 La capilla 31-08-2026 04:15 8,8 96 0 0 360 0 1095,4
17 La capilla 31-08-2026 04:00 8,9 96 0,8 0 360 0 1095,2
16 La capilla 31-08-2026 03:45 8,9 96 0 0 360 0 1095,2
15 La capilla 31-08-2026 03:30 9 95 0 0 360 0 1095
14 La capilla 31-08-2026 03:15 9 95 0 0,4 360 0 1094,9
13 La capilla 31-08-2026 03:00 9,1 94 0 0,4 360 0 1095
12 La capilla 31-08-2026 02:45 9,1 95 0 0,4 360 0 1095
11 La capilla 31-08-2026 02:30 9 95 0 0 360 0 1095
10 La capilla 31-08-2026 02:15 9 95 0 1,3 360 0 1095
9 La capilla 31-08-2026 02:00 9,1 95 0 0 360 0 1094,9
8 La capilla 31-08-2026 01:45 9,1 95 0 0,4 360 0 1094,7
7 La capilla 31-08-2026 01:30 9,1 96 0 0 360 0 1094,7
6 La capilla 31-08-2026 01:15 9 96 0 0 360 0 1094,7
5 La capilla 31-08-2026 01:00 9,1 95 0 0 360 0 1094,4
4 La capilla 31-08-2026 00:45 9,2 96 0 0 360 0 1094,2
3 La capilla 31-08-2026 00:30 9,2 96 0 0 360 0 1093,9
2 La capilla 31-08-2026 00:15 9,3 95 0 0,4 360 0 1093,7
1 La capilla 31-08-2026 00:00 9,3 95 0 0,4 360 0 1093,9